4TA6 weather

Comanche Caves Ranch Airport
Hunt, Texas, United States

Public forecast

Using degrees Fahrenheit for public forecast. Weather courtesy of forecast.io.

Closest aviation weather report (METAR) to Comanche Caves Ranch Airport

Closest report is Kerrville Municipal Louis Schreiner Field, 15.7 nm (29.1 km) E. Retrieved 2019/10/22 19:35 UTC (20 minutes ago):

KERV 221935Z AUTO 00000KT 10SM CLR 27/M06 A3017 RMK AO2 T02691063

Closest aviation forecast (TAF) to Comanche Caves Ranch Airport

Closest forecast is Kimble County Airport, 35.3 nm (65.5 km) NW. Retrieved 2019/10/22 18:48 UTC (1 hour ago):

TAF KJCT 221745Z 2218/2318 15007KT P6SM SKC FM230100 VRB03KT P6SM SKC FM231400 19014G24KT P6SM SKC